sensor_id;sensor_type;location;lat;lon;timestamp;pressure;altitude;pressure_sealevel;temperature;humidity
72961;BME280;61141;46.204;19.774;2023-02-21T00:03:13;100535.13;;;5.61;82.18
72961;BME280;61141;46.204;19.774;2023-02-21T00:06:35;100545.22;;;5.81;81.80
72961;BME280;61141;46.204;19.774;2023-02-21T00:09:56;100551.75;;;5.80;81.72
72961;BME280;61141;46.204;19.774;2023-02-21T00:13:17;100543.22;;;5.70;81.85
72961;BME280;61141;46.204;19.774;2023-02-21T00:16:39;100532.06;;;5.83;81.24
72961;BME280;61141;46.204;19.774;2023-02-21T00:20:00;100540.19;;;5.71;81.59
72961;BME280;61141;46.204;19.774;2023-02-21T00:23:21;100529.41;;;5.75;81.53
72961;BME280;61141;46.204;19.774;2023-02-21T00:26:43;100521.94;;;5.72;81.50
72961;BME280;61141;46.204;19.774;2023-02-21T00:30:05;100524.19;;;5.70;81.50
72961;BME280;61141;46.204;19.774;2023-02-21T00:33:27;100534.78;;;5.83;81.46
72961;BME280;61141;46.204;19.774;2023-02-21T00:36:48;100516.69;;;5.67;81.62
72961;BME280;61141;46.204;19.774;2023-02-21T00:40:11;100514.38;;;5.77;81.85
72961;BME280;61141;46.204;19.774;2023-02-21T00:43:34;100522.97;;;5.88;81.64
72961;BME280;61141;46.204;19.774;2023-02-21T00:46:56;100513.28;;;5.99;81.26
72961;BME280;61141;46.204;19.774;2023-02-21T00:50:19;100513.16;;;6.08;80.87
72961;BME280;61141;46.204;19.774;2023-02-21T00:53:40;100512.19;;;6.12;80.87
72961;BME280;61141;46.204;19.774;2023-02-21T00:57:02;100514.91;;;6.24;80.60
72961;BME280;61141;46.204;19.774;2023-02-21T01:00:24;100514.38;;;6.31;80.50
72961;BME280;61141;46.204;19.774;2023-02-21T01:03:46;100513.22;;;6.20;80.78
72961;BME280;61141;46.204;19.774;2023-02-21T01:07:07;100508.94;;;6.31;80.72
72961;BME280;61141;46.204;19.774;2023-02-21T01:10:28;100513.25;;;6.44;80.32
72961;BME280;61141;46.204;19.774;2023-02-21T01:13:50;100505.91;;;6.44;80.22
72961;BME280;61141;46.204;19.774;2023-02-21T01:17:12;100496.62;;;6.58;80.05
72961;BME280;61141;46.204;19.774;2023-02-21T01:20:33;100513.62;;;6.55;80.01
72961;BME280;61141;46.204;19.774;2023-02-21T01:23:55;100511.06;;;6.70;79.58
72961;BME280;61141;46.204;19.774;2023-02-21T01:27:17;100506.34;;;6.46;80.18
72961;BME280;61141;46.204;19.774;2023-02-21T01:30:40;100504.91;;;6.61;80.16
72961;BME280;61141;46.204;19.774;2023-02-21T01:34:01;100504.53;;;6.38;80.84
72961;BME280;61141;46.204;19.774;2023-02-21T01:37:23;100501.81;;;6.38;80.89
72961;BME280;61141;46.204;19.774;2023-02-21T01:40:45;100496.56;;;6.21;81.34
72961;BME280;61141;46.204;19.774;2023-02-21T01:44:38;100507.19;;;6.14;82.17
72961;BME280;61141;46.204;19.774;2023-02-21T01:48:00;100492.44;;;6.03;82.95
72961;BME280;61141;46.204;19.774;2023-02-21T01:51:26;100501.69;;;6.02;82.72
72961;BME280;61141;46.204;19.774;2023-02-21T01:54:51;100477.94;;;5.99;83.22
72961;BME280;61141;46.204;19.774;2023-02-21T01:58:13;100503.16;;;6.32;83.01
72961;BME280;61141;46.204;19.774;2023-02-21T02:01:44;100502.03;;;6.33;83.06
72961;BME280;61141;46.204;19.774;2023-02-21T02:05:08;100507.16;;;6.35;82.38
72961;BME280;61141;46.204;19.774;2023-02-21T02:08:31;100513.50;;;6.06;83.00
72961;BME280;61141;46.204;19.774;2023-02-21T02:19:03;100513.12;;;5.96;84.20
72961;BME280;61141;46.204;19.774;2023-02-21T02:22:49;100510.50;;;5.87;84.34
72961;BME280;61141;46.204;19.774;2023-02-21T02:36:50;100500.53;;;5.50;85.19
72961;BME280;61141;46.204;19.774;2023-02-21T02:40:01;100498.88;;;5.37;85.80
72961;BME280;61141;46.204;19.774;2023-02-21T02:46:49;100495.75;;;5.05;86.25
72961;BME280;61141;46.204;19.774;2023-02-21T02:49:54;100481.00;;;4.86;86.85
72961;BME280;61141;46.204;19.774;2023-02-21T02:53:01;100496.47;;;4.85;87.87
72961;BME280;61141;46.204;19.774;2023-02-21T02:56:06;100498.84;;;4.87;88.71
72961;BME280;61141;46.204;19.774;2023-02-21T02:59:17;100482.62;;;5.07;88.63
72961;BME280;61141;46.204;19.774;2023-02-21T03:06:17;100484.59;;;4.98;88.73
72961;BME280;61141;46.204;19.774;2023-02-21T03:12:40;100483.44;;;5.28;89.45
72961;BME280;61141;46.204;19.774;2023-02-21T03:15:53;100487.94;;;5.24;88.86
72961;BME280;61141;46.204;19.774;2023-02-21T03:22:11;100481.72;;;5.65;89.05
72961;BME280;61141;46.204;19.774;2023-02-21T03:25:16;100474.59;;;5.73;88.56
72961;BME280;61141;46.204;19.774;2023-02-21T03:28:21;100479.72;;;5.95;88.29
72961;BME280;61141;46.204;19.774;2023-02-21T03:31:29;100477.13;;;5.99;87.57
72961;BME280;61141;46.204;19.774;2023-02-21T03:34:33;100471.13;;;6.05;87.38
72961;BME280;61141;46.204;19.774;2023-02-21T03:37:41;100477.63;;;6.13;87.08
72961;BME280;61141;46.204;19.774;2023-02-21T03:40:45;100479.53;;;6.12;87.71
72961;BME280;61141;46.204;19.774;2023-02-21T03:43:49;100481.37;;;6.20;87.24
72961;BME280;61141;46.204;19.774;2023-02-21T03:46:53;100488.81;;;6.11;87.31
72961;BME280;61141;46.204;19.774;2023-02-21T03:49:56;100465.19;;;5.91;87.84
72961;BME280;61141;46.204;19.774;2023-02-21T03:52:59;100462.19;;;5.84;88.38
72961;BME280;61141;46.204;19.774;2023-02-21T03:56:03;100463.31;;;5.83;88.17
72961;BME280;61141;46.204;19.774;2023-02-21T03:59:07;100475.31;;;6.03;87.72
72961;BME280;61141;46.204;19.774;2023-02-21T04:02:11;100479.94;;;6.02;87.57
72961;BME280;61141;46.204;19.774;2023-02-21T04:05:14;100487.53;;;5.97;88.33
72961;BME280;61141;46.204;19.774;2023-02-21T04:08:17;100493.16;;;5.91;87.98
72961;BME280;61141;46.204;19.774;2023-02-21T04:11:26;100485.41;;;5.61;87.57
72961;BME280;61141;46.204;19.774;2023-02-21T04:14:29;100467.78;;;5.25;87.93
72961;BME280;61141;46.204;19.774;2023-02-21T04:17:32;100484.63;;;5.40;89.99
72961;BME280;61141;46.204;19.774;2023-02-21T04:20:36;100482.25;;;5.59;90.35
72961;BME280;61141;46.204;19.774;2023-02-21T04:23:39;100471.31;;;5.67;89.98
72961;BME280;61141;46.204;19.774;2023-02-21T04:26:42;100480.03;;;5.73;89.61
72961;BME280;61141;46.204;19.774;2023-02-21T04:29:45;100481.50;;;5.91;88.76
72961;BME280;61141;46.204;19.774;2023-02-21T04:32:48;100478.09;;;5.94;88.83
72961;BME280;61141;46.204;19.774;2023-02-21T04:35:51;100483.06;;;6.13;88.19
72961;BME280;61141;46.204;19.774;2023-02-21T04:38:55;100482.47;;;6.07;88.06
72961;BME280;61141;46.204;19.774;2023-02-21T04:41:58;100479.62;;;5.83;87.41
72961;BME280;61141;46.204;19.774;2023-02-21T04:45:01;100492.75;;;5.81;88.87
72961;BME280;61141;46.204;19.774;2023-02-21T04:48:05;100475.16;;;5.87;88.96
72961;BME280;61141;46.204;19.774;2023-02-21T04:51:08;100488.31;;;5.97;89.19
72961;BME280;61141;46.204;19.774;2023-02-21T04:54:18;100490.44;;;5.91;88.37
72961;BME280;61141;46.204;19.774;2023-02-21T04:57:21;100493.75;;;5.97;88.99
72961;BME280;61141;46.204;19.774;2023-02-21T05:00:25;100492.00;;;6.13;88.44
72961;BME280;61141;46.204;19.774;2023-02-21T05:03:29;100477.94;;;6.11;87.61
72961;BME280;61141;46.204;19.774;2023-02-21T05:06:32;100475.88;;;5.96;88.22
72961;BME280;61141;46.204;19.774;2023-02-21T05:09:35;100471.88;;;5.73;87.92
72961;BME280;61141;46.204;19.774;2023-02-21T05:12:38;100462.19;;;5.51;88.80
72961;BME280;61141;46.204;19.774;2023-02-21T05:15:43;100468.75;;;5.29;88.92
72961;BME280;61141;46.204;19.774;2023-02-21T05:18:47;100474.75;;;5.14;89.41
72961;BME280;61141;46.204;19.774;2023-02-21T05:21:50;100479.97;;;4.99;89.66
72961;BME280;61141;46.204;19.774;2023-02-21T05:24:53;100460.91;;;4.78;90.14
72961;BME280;61141;46.204;19.774;2023-02-21T05:27:55;100463.31;;;4.80;90.42
72961;BME280;61141;46.204;19.774;2023-02-21T05:30:59;100468.13;;;4.74;90.75
72961;BME280;61141;46.204;19.774;2023-02-21T05:34:02;100467.69;;;4.63;91.06
72961;BME280;61141;46.204;19.774;2023-02-21T05:37:05;100467.28;;;4.53;90.82
72961;BME280;61141;46.204;19.774;2023-02-21T05:40:11;100452.09;;;4.14;91.46
72961;BME280;61141;46.204;19.774;2023-02-21T05:43:15;100464.34;;;4.20;91.59
72961;BME280;61141;46.204;19.774;2023-02-21T05:46:18;100467.66;;;4.34;92.03
72961;BME280;61141;46.204;19.774;2023-02-21T05:49:22;100459.66;;;4.38;92.07
72961;BME280;61141;46.204;19.774;2023-02-21T05:52:25;100435.91;;;4.64;91.73
72961;BME280;61141;46.204;19.774;2023-02-21T05:55:28;100457.25;;;5.03;92.17
72961;BME280;61141;46.204;19.774;2023-02-21T05:58:32;100466.16;;;5.54;91.65
72961;BME280;61141;46.204;19.774;2023-02-21T06:01:35;100470.34;;;5.84;90.56
72961;BME280;61141;46.204;19.774;2023-02-21T06:04:38;100479.72;;;5.95;89.61
72961;BME280;61141;46.204;19.774;2023-02-21T06:07:40;100487.91;;;6.07;89.20
72961;BME280;61141;46.204;19.774;2023-02-21T06:10:44;100479.53;;;6.12;88.62
72961;BME280;61141;46.204;19.774;2023-02-21T06:13:50;100480.84;;;6.39;87.88
72961;BME280;61141;46.204;19.774;2023-02-21T06:16:53;100484.09;;;6.32;88.15
72961;BME280;61141;46.204;19.774;2023-02-21T06:19:55;100488.34;;;6.54;87.50
72961;BME280;61141;46.204;19.774;2023-02-21T06:22:58;100493.34;;;6.88;85.78
72961;BME280;61141;46.204;19.774;2023-02-21T06:26:01;100499.38;;;6.82;86.19
72961;BME280;61141;46.204;19.774;2023-02-21T06:29:04;100504.38;;;7.04;85.25
72961;BME280;61141;46.204;19.774;2023-02-21T06:32:07;100484.37;;;7.12;84.33
72961;BME280;61141;46.204;19.774;2023-02-21T06:35:11;100492.13;;;6.98;85.12
72961;BME280;61141;46.204;19.774;2023-02-21T06:38:13;100514.13;;;7.17;84.96
72961;BME280;61141;46.204;19.774;2023-02-21T06:41:22;100518.03;;;7.44;84.19
72961;BME280;61141;46.204;19.774;2023-02-21T06:44:28;100520.12;;;7.75;83.04
72961;BME280;61141;46.204;19.774;2023-02-21T06:47:31;100527.50;;;7.74;83.00
72961;BME280;61141;46.204;19.774;2023-02-21T06:50:34;100515.72;;;7.98;81.89
72961;BME280;61141;46.204;19.774;2023-02-21T06:53:37;100531.91;;;8.06;82.05
72961;BME280;61141;46.204;19.774;2023-02-21T06:56:40;100526.84;;;8.20;81.29
72961;BME280;61141;46.204;19.774;2023-02-21T06:59:44;100530.91;;;8.39;80.22
72961;BME280;61141;46.204;19.774;2023-02-21T07:02:47;100526.00;;;8.75;79.37
72961;BME280;61141;46.204;19.774;2023-02-21T07:05:50;100533.84;;;9.43;76.39
72961;BME280;61141;46.204;19.774;2023-02-21T07:08:53;100537.94;;;10.45;71.79
72961;BME280;61141;46.204;19.774;2023-02-21T07:11:56;100530.81;;;9.64;74.33
72961;BME280;61141;46.204;19.774;2023-02-21T07:14:58;100533.03;;;9.58;74.66
72961;BME280;61141;46.204;19.774;2023-02-21T07:18:04;100528.59;;;9.34;75.91
72961;BME280;61141;46.204;19.774;2023-02-21T07:21:08;100544.38;;;9.41;75.79
72961;BME280;61141;46.204;19.774;2023-02-21T07:24:13;100542.19;;;9.50;75.27
72961;BME280;61141;46.204;19.774;2023-02-21T07:27:15;100532.53;;;9.72;74.56
72961;BME280;61141;46.204;19.774;2023-02-21T07:30:19;100535.84;;;10.00;73.16
72961;BME280;61141;46.204;19.774;2023-02-21T07:33:22;100529.34;;;10.08;72.66
72961;BME280;61141;46.204;19.774;2023-02-21T07:36:25;100530.03;;;10.01;73.85
72961;BME280;61141;46.204;19.774;2023-02-21T07:39:28;100518.91;;;9.94;73.48
72961;BME280;61141;46.204;19.774;2023-02-21T07:42:31;100506.97;;;10.41;70.49
72961;BME280;61141;46.204;19.774;2023-02-21T07:45:33;100512.56;;;10.48;70.67
72961;BME280;61141;46.204;19.774;2023-02-21T07:48:36;100512.06;;;10.65;70.12
72961;BME280;61141;46.204;19.774;2023-02-21T07:51:39;100507.19;;;11.00;68.16
72961;BME280;61141;46.204;19.774;2023-02-21T07:54:42;100511.06;;;10.99;67.68
72961;BME280;61141;46.204;19.774;2023-02-21T07:57:45;100526.53;;;11.11;66.72
72961;BME280;61141;46.204;19.774;2023-02-21T08:00:48;100520.44;;;11.21;67.43
72961;BME280;61141;46.204;19.774;2023-02-21T08:03:51;100531.87;;;11.83;63.50
72961;BME280;61141;46.204;19.774;2023-02-21T08:07:00;100530.03;;;11.90;63.44
72961;BME280;61141;46.204;19.774;2023-02-21T08:10:04;100537.59;;;12.00;61.95
72961;BME280;61141;46.204;19.774;2023-02-21T08:13:07;100529.78;;;12.02;61.69
72961;BME280;61141;46.204;19.774;2023-02-21T08:16:10;100537.59;;;12.33;61.05
72961;BME280;61141;46.204;19.774;2023-02-21T08:19:13;100541.50;;;12.32;61.25
72961;BME280;61141;46.204;19.774;2023-02-21T08:22:17;100535.47;;;12.57;59.52
72961;BME280;61141;46.204;19.774;2023-02-21T08:25:20;100537.91;;;12.65;58.42
72961;BME280;61141;46.204;19.774;2023-02-21T08:28:23;100534.00;;;12.66;58.99
72961;BME280;61141;46.204;19.774;2023-02-21T08:31:26;100536.56;;;12.92;56.57
72961;BME280;61141;46.204;19.774;2023-02-21T08:34:29;100522.34;;;12.80;57.63
72961;BME280;61141;46.204;19.774;2023-02-21T08:37:32;100526.00;;;12.94;57.34
72961;BME280;61141;46.204;19.774;2023-02-21T08:40:38;100511.19;;;13.06;57.12
72961;BME280;61141;46.204;19.774;2023-02-21T08:43:40;100519.13;;;13.18;56.64
72961;BME280;61141;46.204;19.774;2023-02-21T08:46:44;100523.56;;;13.30;54.56
72961;BME280;61141;46.204;19.774;2023-02-21T08:49:50;100515.72;;;13.35;55.09
72961;BME280;61141;46.204;19.774;2023-02-21T08:52:54;100520.00;;;13.29;54.94
72961;BME280;61141;46.204;19.774;2023-02-21T08:55:57;100511.75;;;13.29;54.29
72961;BME280;61141;46.204;19.774;2023-02-21T08:59:00;100517.38;;;13.50;53.92
72961;BME280;61141;46.204;19.774;2023-02-21T09:02:03;100526.03;;;13.49;53.87
72961;BME280;61141;46.204;19.774;2023-02-21T09:05:12;100520.94;;;13.54;53.52
72961;BME280;61141;46.204;19.774;2023-02-21T09:08:15;100515.50;;;13.65;54.32
72961;BME280;61141;46.204;19.774;2023-02-21T09:11:22;100507.22;;;13.58;53.01
72961;BME280;61141;46.204;19.774;2023-02-21T09:14:27;100503.38;;;13.77;52.99
72961;BME280;61141;46.204;19.774;2023-02-21T09:17:30;100504.19;;;13.88;53.10
72961;BME280;61141;46.204;19.774;2023-02-21T09:20:35;100508.56;;;13.96;54.14
72961;BME280;61141;46.204;19.774;2023-02-21T09:23:43;100508.22;;;14.08;50.59
72961;BME280;61141;46.204;19.774;2023-02-21T09:26:47;100494.50;;;14.22;50.95
72961;BME280;61141;46.204;19.774;2023-02-21T09:29:51;100500.75;;;14.16;51.10
72961;BME280;61141;46.204;19.774;2023-02-21T09:32:55;100493.34;;;14.37;49.91
72961;BME280;61141;46.204;19.774;2023-02-21T09:35:58;100493.75;;;14.50;49.01
72961;BME280;61141;46.204;19.774;2023-02-21T09:39:01;100502.06;;;14.67;48.27
72961;BME280;61141;46.204;19.774;2023-02-21T09:42:14;100495.38;;;14.83;47.76
72961;BME280;61141;46.204;19.774;2023-02-21T09:45:19;100491.84;;;14.72;48.91
72961;BME280;61141;46.204;19.774;2023-02-21T09:48:24;100497.34;;;14.82;48.57
72961;BME280;61141;46.204;19.774;2023-02-21T09:51:29;100508.28;;;15.63;47.62
72961;BME280;61141;46.204;19.774;2023-02-21T09:54:39;100494.50;;;15.53;46.24
72961;BME280;61141;46.204;19.774;2023-02-21T09:57:42;100502.84;;;15.14;46.33
72961;BME280;61141;46.204;19.774;2023-02-21T10:00:45;100496.53;;;15.06;46.96
72961;BME280;61141;46.204;19.774;2023-02-21T10:10:47;100502.06;;;15.24;46.69
72961;BME280;61141;46.204;19.774;2023-02-21T10:13:57;100498.09;;;15.25;47.25
72961;BME280;61141;46.204;19.774;2023-02-21T10:17:46;100498.84;;;15.40;46.57
72961;BME280;61141;46.204;19.774;2023-02-21T10:20:53;100487.81;;;15.57;46.09
72961;BME280;61141;46.204;19.774;2023-02-21T10:24:01;100487.44;;;15.34;46.51
72961;BME280;61141;46.204;19.774;2023-02-21T10:27:10;100478.38;;;15.23;47.12
72961;BME280;61141;46.204;19.774;2023-02-21T10:30:31;100469.66;;;15.56;47.47
72961;BME280;61141;46.204;19.774;2023-02-21T10:33:38;100467.31;;;15.48;48.60
72961;BME280;61141;46.204;19.774;2023-02-21T10:36:41;100449.97;;;15.33;48.45
72961;BME280;61141;46.204;19.774;2023-02-21T10:39:49;100478.31;;;15.55;47.66
72961;BME280;61141;46.204;19.774;2023-02-21T10:43:21;100465.25;;;15.69;47.36
72961;BME280;61141;46.204;19.774;2023-02-21T10:46:42;100469.97;;;15.72;46.80
72961;BME280;61141;46.204;19.774;2023-02-21T10:50:01;100447.31;;;16.06;44.63
72961;BME280;61141;46.204;19.774;2023-02-21T10:53:07;100456.72;;;16.19;45.55
72961;BME280;61141;46.204;19.774;2023-02-21T11:02:36;100430.28;;;16.14;44.55
72961;BME280;61141;46.204;19.774;2023-02-21T11:05:48;100425.12;;;16.20;44.51
72961;BME280;61141;46.204;19.774;2023-02-21T11:08:52;100432.81;;;16.46;43.14
72961;BME280;61141;46.204;19.774;2023-02-21T11:15:17;100431.28;;;16.41;43.16
72961;BME280;61141;46.204;19.774;2023-02-21T11:18:24;100425.31;;;16.50;42.85
72961;BME280;61141;46.204;19.774;2023-02-21T11:21:28;100406.75;;;16.47;43.29
72961;BME280;61141;46.204;19.774;2023-02-21T11:24:30;100411.72;;;16.70;42.73
72961;BME280;61141;46.204;19.774;2023-02-21T11:27:35;100415.97;;;16.81;41.35
72961;BME280;61141;46.204;19.774;2023-02-21T11:31:30;100412.53;;;16.70;41.62
72961;BME280;61141;46.204;19.774;2023-02-21T11:34:11;100402.84;;;16.89;40.70
72961;BME280;61141;46.204;19.774;2023-02-21T11:37:15;100403.81;;;16.72;40.40
72961;BME280;61141;46.204;19.774;2023-02-21T11:40:43;100392.63;;;16.82;40.74
72961;BME280;61141;46.204;19.774;2023-02-21T11:43:51;100395.63;;;16.98;40.41
72961;BME280;61141;46.204;19.774;2023-02-21T11:50:26;100398.56;;;16.84;40.42
72961;BME280;61141;46.204;19.774;2023-02-21T11:53:33;100384.47;;;17.09;40.47
72961;BME280;61141;46.204;19.774;2023-02-21T11:56:52;100374.59;;;17.04;40.60
72961;BME280;61141;46.204;19.774;2023-02-21T12:06:47;100366.22;;;16.74;41.38
72961;BME280;61141;46.204;19.774;2023-02-21T12:10:47;100366.69;;;17.07;40.92
72961;BME280;61141;46.204;19.774;2023-02-21T12:14:04;100360.50;;;16.95;40.92
72961;BME280;61141;46.204;19.774;2023-02-21T12:20:39;100363.66;;;16.94;41.29
72961;BME280;61141;46.204;19.774;2023-02-21T12:23:57;100365.03;;;17.13;41.44
72961;BME280;61141;46.204;19.774;2023-02-21T12:30:44;100345.56;;;16.86;41.03
72961;BME280;61141;46.204;19.774;2023-02-21T12:34:31;100349.75;;;17.01;41.66
72961;BME280;61141;46.204;19.774;2023-02-21T12:44:48;100346.25;;;16.93;41.12
72961;BME280;61141;46.204;19.774;2023-02-21T12:47:57;100339.56;;;16.91;40.96
72961;BME280;61141;46.204;19.774;2023-02-21T12:51:09;100333.59;;;16.96;41.20
72961;BME280;61141;46.204;19.774;2023-02-21T12:54:21;100333.78;;;16.78;41.67
72961;BME280;61141;46.204;19.774;2023-02-21T13:01:00;100318.72;;;16.83;41.41
72961;BME280;61141;46.204;19.774;2023-02-21T13:07:25;100305.19;;;16.92;41.59
72961;BME280;61141;46.204;19.774;2023-02-21T13:10:45;100316.13;;;17.02;40.88
72961;BME280;61141;46.204;19.774;2023-02-21T13:13:50;100297.38;;;16.83;41.18
72961;BME280;61141;46.204;19.774;2023-02-21T13:16:53;100308.25;;;17.01;41.28
72961;BME280;61141;46.204;19.774;2023-02-21T13:20:03;100320.00;;;17.09;41.00
72961;BME280;61141;46.204;19.774;2023-02-21T13:23:37;100309.62;;;17.16;41.68
72961;BME280;61141;46.204;19.774;2023-02-21T13:33:40;100320.25;;;16.87;41.32
72961;BME280;61141;46.204;19.774;2023-02-21T13:36:49;100307.28;;;16.81;42.08
72961;BME280;61141;46.204;19.774;2023-02-21T13:39:59;100300.66;;;16.71;41.88
72961;BME280;61141;46.204;19.774;2023-02-21T13:43:10;100298.72;;;16.68;43.14
72961;BME280;61141;46.204;19.774;2023-02-21T13:56:13;100294.56;;;16.87;42.61
72961;BME280;61141;46.204;19.774;2023-02-21T14:02:27;100286.50;;;16.66;42.01
72961;BME280;61141;46.204;19.774;2023-02-21T14:08:47;100289.78;;;16.50;42.56
72961;BME280;61141;46.204;19.774;2023-02-21T14:11:52;100286.59;;;16.55;42.36
72961;BME280;61141;46.204;19.774;2023-02-21T14:15:06;100288.09;;;16.63;42.14
72961;BME280;61141;46.204;19.774;2023-02-21T14:18:15;100283.00;;;16.62;42.04
72961;BME280;61141;46.204;19.774;2023-02-21T14:24:40;100278.53;;;16.71;42.06
72961;BME280;61141;46.204;19.774;2023-02-21T14:27:46;100293.47;;;16.77;41.81
72961;BME280;61141;46.204;19.774;2023-02-21T14:31:00;100283.16;;;16.81;42.07
72961;BME280;61141;46.204;19.774;2023-02-21T14:34:04;100272.38;;;16.57;42.87
72961;BME280;61141;46.204;19.774;2023-02-21T14:37:41;100275.06;;;16.64;42.41
72961;BME280;61141;46.204;19.774;2023-02-21T15:04:38;100293.00;;;16.04;44.44
72961;BME280;61141;46.204;19.774;2023-02-21T15:11:01;100295.09;;;15.86;45.11
72961;BME280;61141;46.204;19.774;2023-02-21T15:14:18;100294.78;;;15.73;45.50
72961;BME280;61141;46.204;19.774;2023-02-21T15:17:25;100300.44;;;15.52;46.23
72961;BME280;61141;46.204;19.774;2023-02-21T15:20:30;100270.16;;;15.38;46.43
72961;BME280;61141;46.204;19.774;2023-02-21T15:23:33;100302.06;;;15.39;46.49
72961;BME280;61141;46.204;19.774;2023-02-21T15:26:36;100287.94;;;15.26;46.75
72961;BME280;61141;46.204;19.774;2023-02-21T15:29:41;100293.31;;;15.55;46.28
72961;BME280;61141;46.204;19.774;2023-02-21T15:32:54;100293.84;;;15.25;47.28
72961;BME280;61141;46.204;19.774;2023-02-21T15:36:04;100297.03;;;15.20;47.39
72961;BME280;61141;46.204;19.774;2023-02-21T15:39:21;100301.41;;;15.14;47.59
72961;BME280;61141;46.204;19.774;2023-02-21T15:42:27;100299.44;;;15.14;47.67
72961;BME280;61141;46.204;19.774;2023-02-21T15:45:43;100297.09;;;15.09;48.15
72961;BME280;61141;46.204;19.774;2023-02-21T15:48:47;100293.91;;;15.18;47.85
72961;BME280;61141;46.204;19.774;2023-02-21T15:51:51;100301.19;;;14.62;49.49
72961;BME280;61141;46.204;19.774;2023-02-21T15:55:26;100302.00;;;14.35;50.23
72961;BME280;61141;46.204;19.774;2023-02-21T15:58:30;100301.22;;;14.27;51.26
72961;BME280;61141;46.204;19.774;2023-02-21T16:01:33;100298.06;;;14.04;51.46
72961;BME280;61141;46.204;19.774;2023-02-21T16:04:40;100301.19;;;13.92;52.09
72961;BME280;61141;46.204;19.774;2023-02-21T16:07:43;100281.53;;;13.69;52.13
72961;BME280;61141;46.204;19.774;2023-02-21T16:11:01;100317.31;;;13.76;52.80
72961;BME280;61141;46.204;19.774;2023-02-21T16:14:04;100314.56;;;13.69;52.99
72961;BME280;61141;46.204;19.774;2023-02-21T16:20:32;100320.75;;;13.30;54.25
72961;BME280;61141;46.204;19.774;2023-02-21T16:23:40;100323.16;;;13.39;54.10
72961;BME280;61141;46.204;19.774;2023-02-21T16:27:02;100332.06;;;13.11;55.02
72961;BME280;61141;46.204;19.774;2023-02-21T16:30:43;100333.28;;;13.21;55.02
72961;BME280;61141;46.204;19.774;2023-02-21T16:33:40;100309.62;;;13.06;54.96
72961;BME280;61141;46.204;19.774;2023-02-21T16:36:44;100346.44;;;12.87;55.91
72961;BME280;61141;46.204;19.774;2023-02-21T16:39:47;100346.53;;;12.98;56.31
72961;BME280;61141;46.204;19.774;2023-02-21T16:42:52;100348.59;;;13.18;56.04
72961;BME280;61141;46.204;19.774;2023-02-21T16:45:56;100351.97;;;12.90;56.79
72961;BME280;61141;46.204;19.774;2023-02-21T16:49:00;100361.22;;;12.65;57.43
72961;BME280;61141;46.204;19.774;2023-02-21T16:52:03;100360.06;;;12.66;58.03
72961;BME280;61141;46.204;19.774;2023-02-21T16:55:07;100371.22;;;12.36;58.62
72961;BME280;61141;46.204;19.774;2023-02-21T17:01:30;100374.34;;;12.34;59.77
72961;BME280;61141;46.204;19.774;2023-02-21T17:04:34;100379.66;;;12.13;60.34
72961;BME280;61141;46.204;19.774;2023-02-21T17:07:37;100368.53;;;11.99;60.58
72961;BME280;61141;46.204;19.774;2023-02-21T17:10:40;100388.84;;;11.91;60.50
72961;BME280;61141;46.204;19.774;2023-02-21T17:13:44;100374.69;;;11.86;61.54
72961;BME280;61141;46.204;19.774;2023-02-21T17:16:48;100364.75;;;11.74;61.34
72961;BME280;61141;46.204;19.774;2023-02-21T17:19:51;100398.88;;;11.73;61.54
72961;BME280;61141;46.204;19.774;2023-02-21T17:22:54;100399.94;;;11.98;61.91
72961;BME280;61141;46.204;19.774;2023-02-21T17:25:57;100408.97;;;12.02;62.06
72961;BME280;61141;46.204;19.774;2023-02-21T17:29:00;100413.72;;;12.05;62.56
72961;BME280;61141;46.204;19.774;2023-02-21T17:32:03;100407.50;;;12.12;62.87
72961;BME280;61141;46.204;19.774;2023-02-21T17:35:09;100412.47;;;11.99;63.10
72961;BME280;61141;46.204;19.774;2023-02-21T17:38:12;100422.63;;;11.95;63.75
72961;BME280;61141;46.204;19.774;2023-02-21T17:41:17;100417.00;;;11.81;63.80
72961;BME280;61141;46.204;19.774;2023-02-21T17:44:21;100412.25;;;11.78;64.70
72961;BME280;61141;46.204;19.774;2023-02-21T17:47:24;100413.41;;;11.77;65.05
72961;BME280;61141;46.204;19.774;2023-02-21T17:50:28;100421.19;;;11.71;65.14
72961;BME280;61141;46.204;19.774;2023-02-21T17:53:32;100430.41;;;11.60;65.87
72961;BME280;61141;46.204;19.774;2023-02-21T17:56:35;100431.66;;;11.66;65.95
72961;BME280;61141;46.204;19.774;2023-02-21T17:59:38;100428.75;;;11.52;66.60
72961;BME280;61141;46.204;19.774;2023-02-21T18:02:41;100436.22;;;11.51;66.97
72961;BME280;61141;46.204;19.774;2023-02-21T18:05:44;100435.88;;;11.56;66.94
72961;BME280;61141;46.204;19.774;2023-02-21T18:08:48;100427.06;;;11.40;67.09
72961;BME280;61141;46.204;19.774;2023-02-21T18:11:53;100425.28;;;11.25;67.60
72961;BME280;61141;46.204;19.774;2023-02-21T18:14:56;100428.72;;;11.18;68.47
72961;BME280;61141;46.204;19.774;2023-02-21T18:17:59;100423.78;;;11.01;68.44
72961;BME280;61141;46.204;19.774;2023-02-21T18:21:10;100427.78;;;11.07;69.00
72961;BME280;61141;46.204;19.774;2023-02-21T18:24:14;100426.75;;;10.89;69.36
72961;BME280;61141;46.204;19.774;2023-02-21T18:27:17;100426.09;;;10.73;69.65
72961;BME280;61141;46.204;19.774;2023-02-21T18:30:23;100423.03;;;10.78;69.75
72961;BME280;61141;46.204;19.774;2023-02-21T18:33:26;100425.97;;;10.66;70.31
72961;BME280;61141;46.204;19.774;2023-02-21T18:36:29;100424.28;;;10.58;70.44
72961;BME280;61141;46.204;19.774;2023-02-21T18:39:34;100428.38;;;10.45;70.73
72961;BME280;61141;46.204;19.774;2023-02-21T18:42:40;100425.22;;;10.43;70.88